createdAt,value
2022-08-05T02:19:27.315Z,2.70
2022-08-05T06:29:25.104Z,4.03
2022-08-05T06:32:26.357Z,4.22
2022-08-05T06:34:58.778Z,4.40
2022-08-05T06:37:52.276Z,4.50
2022-08-05T06:40:21.145Z,4.97
2022-08-05T06:42:52.117Z,4.55
2022-08-05T06:46:03.369Z,4.38
2022-08-05T06:48:36.175Z,4.88
2022-08-05T06:51:00.238Z,5.00
2022-08-05T06:53:29.395Z,4.93
2022-08-05T06:56:00.594Z,5.03
2022-08-05T06:58:34.974Z,4.82
2022-08-05T07:01:06.947Z,4.55
2022-08-05T07:03:36.005Z,4.95
2022-08-05T07:06:10.372Z,4.82
2022-08-05T07:08:47.167Z,4.35
2022-08-05T07:11:22.208Z,4.28
2022-08-05T07:14:20.541Z,4.30
2022-08-05T07:18:00.162Z,3.53
2022-08-05T07:22:39.595Z,4.13
2022-08-05T07:25:54.219Z,3.78
2022-08-05T07:28:07.266Z,4.10
2022-08-05T07:30:40.140Z,3.55
2022-08-05T07:33:15.704Z,4.05
2022-08-05T07:36:01.558Z,3.70
2022-08-05T07:38:43.747Z,4.20
2022-08-05T07:42:13.955Z,4.32
2022-08-05T07:44:19.315Z,4.55
2022-08-05T07:46:49.521Z,5.03
2022-08-05T07:49:18.645Z,4.78
2022-08-05T07:51:54.539Z,4.15
2022-08-05T07:54:31.430Z,3.95
2022-08-05T07:57:17.834Z,3.72
2022-08-05T07:59:52.541Z,3.78
2022-08-05T08:02:26.539Z,3.58
2022-08-05T08:04:59.271Z,3.80
2022-08-05T08:07:28.397Z,3.80
2022-08-05T08:09:57.010Z,3.72
2022-08-05T08:12:35.236Z,3.55
2022-08-05T08:15:15.093Z,3.72
2022-08-05T08:17:50.617Z,3.45
2022-08-05T08:21:00.144Z,4.35
2022-08-05T08:23:11.648Z,3.72
2022-08-05T08:26:04.685Z,3.67
2022-08-05T08:28:36.831Z,3.50
2022-08-05T08:31:14.602Z,3.55
2022-08-05T08:33:46.904Z,3.72
2022-08-05T08:36:37.449Z,3.67
2022-08-05T08:39:15.605Z,3.70
2022-08-05T08:41:52.459Z,4.18
2022-08-05T08:45:23.841Z,3.95
2022-08-05T08:48:06.404Z,3.78
2022-08-05T08:50:30.746Z,3.70
2022-08-05T08:53:11.844Z,3.95
2022-08-05T08:56:03.512Z,3.95
2022-08-05T08:58:37.458Z,4.05
2022-08-05T09:01:17.431Z,4.55
2022-08-05T09:03:54.294Z,4.30
2022-08-05T09:06:29.727Z,3.90
2022-08-05T09:09:00.287Z,3.83
2022-08-05T09:11:51.341Z,3.45
2022-08-05T09:14:58.376Z,3.78
2022-08-05T09:17:08.223Z,3.65
2022-08-05T09:20:01.944Z,4.00
2022-08-05T09:22:32.030Z,3.90
2022-08-05T09:25:13.986Z,4.10
2022-08-05T09:28:04.450Z,3.95
2022-08-05T09:30:34.878Z,3.78
2022-08-05T09:33:04.754Z,4.07
2022-08-05T09:35:34.578Z,4.45
2022-08-05T09:38:12.689Z,3.80
2022-08-05T09:40:52.651Z,4.00
2022-08-05T09:43:42.191Z,4.20
2022-08-05T09:46:28.471Z,4.15
2022-08-05T09:49:07.557Z,3.85
2022-08-05T09:51:49.752Z,3.95
2022-08-05T09:54:21.390Z,4.03
2022-08-05T09:57:01.741Z,4.40
2022-08-05T09:59:35.005Z,3.80
2022-08-05T10:02:06.221Z,3.80
2022-08-05T10:04:41.151Z,3.70
2022-08-05T10:07:20.064Z,3.80
2022-08-05T10:10:14.362Z,3.53
2022-08-05T10:12:49.317Z,3.75
2022-08-05T10:15:21.785Z,3.55
2022-08-05T10:18:08.916Z,4.45
2022-08-05T10:20:39.814Z,4.22
2022-08-05T10:23:34.104Z,4.32
2022-08-05T10:26:03.224Z,4.03
2022-08-05T10:28:36.831Z,3.83
2022-08-05T10:32:55.077Z,3.65
2022-08-05T10:33:54.415Z,4.38
2022-08-05T10:36:23.674Z,4.25
2022-08-05T10:39:10.006Z,3.88
2022-08-05T10:41:47.376Z,4.15
2022-08-05T10:44:20.479Z,3.97
2022-08-05T10:46:54.391Z,4.38
2022-08-05T10:49:26.718Z,3.88
2022-08-05T10:52:00.336Z,3.72
2022-08-05T10:54:56.067Z,4.05
2022-08-05T10:57:32.126Z,3.70
2022-08-05T11:00:20.193Z,4.22
2022-08-05T11:03:25.434Z,4.10
2022-08-05T11:06:14.572Z,3.35
2022-08-05T11:09:16.572Z,3.75
2022-08-05T11:11:52.650Z,3.33
2022-08-05T11:14:49.398Z,3.63
2022-08-05T11:18:07.474Z,3.65
2022-08-05T11:20:44.524Z,3.88
2022-08-05T11:24:03.050Z,3.80
2022-08-05T11:26:28.886Z,3.53
2022-08-05T11:29:12.146Z,3.75
2022-08-05T11:31:54.089Z,3.97
2022-08-05T11:34:51.143Z,3.40
2022-08-05T11:38:28.680Z,3.45
2022-08-05T11:41:13.844Z,3.92
2022-08-05T11:44:04.404Z,4.18
2022-08-05T11:46:58.647Z,3.83
2022-08-05T11:49:27.259Z,3.72
2022-08-05T11:51:57.538Z,3.88
2022-08-05T11:54:33.954Z,4.35
2022-08-05T11:57:08.711Z,3.88
2022-08-05T11:59:53.222Z,3.85
2022-08-05T12:02:31.701Z,3.92
2022-08-05T12:05:08.238Z,3.38
2022-08-05T12:08:03.797Z,4.25
2022-08-05T12:10:45.400Z,3.63
2022-08-05T12:13:18.848Z,3.72
2022-08-05T12:16:04.553Z,3.88
2022-08-05T12:18:48.669Z,4.13
2022-08-05T12:21:23.936Z,4.20
2022-08-05T12:24:00.067Z,3.95
2022-08-05T12:26:32.837Z,3.50
2022-08-05T12:29:03.213Z,4.25
2022-08-05T12:31:40.704Z,4.13
2022-08-05T12:34:20.437Z,4.40
2022-08-05T12:36:52.286Z,3.95
2022-08-05T12:39:21.034Z,4.07
2022-08-05T12:41:49.740Z,4.22
2022-08-05T12:44:33.871Z,3.90
2022-08-05T12:47:03.646Z,3.85
2022-08-05T12:50:03.089Z,3.75
2022-08-05T12:52:39.208Z,3.80
2022-08-05T12:55:22.305Z,3.67
2022-08-05T12:58:49.716Z,4.15
2022-08-05T13:01:59.857Z,3.78
2022-08-05T13:03:33.460Z,3.78
2022-08-05T13:06:04.493Z,3.85
2022-08-05T13:08:33.030Z,4.32
2022-08-05T13:11:02.444Z,4.05
2022-08-05T13:14:05.547Z,3.63
2022-08-05T13:16:25.223Z,4.05
2022-08-05T13:18:58.903Z,3.78
2022-08-05T13:21:38.153Z,4.13
2022-08-05T13:24:27.779Z,4.07
2022-08-05T13:27:06.410Z,3.90
2022-08-05T13:29:39.421Z,3.47
2022-08-05T13:32:33.049Z,3.90
2022-08-05T13:35:03.779Z,3.92
2022-08-05T13:37:35.130Z,3.83
2022-08-05T13:40:14.030Z,4.18
2022-08-05T13:42:45.819Z,3.72
2022-08-05T13:45:14.101Z,3.30
2022-08-05T13:48:08.844Z,3.72
2022-08-05T13:50:37.824Z,3.80
2022-08-05T13:53:09.034Z,3.25
2022-08-05T13:55:50.243Z,3.67
2022-08-05T13:58:30.859Z,3.70
2022-08-05T14:00:59.821Z,4.00
2022-08-05T14:03:28.950Z,3.63
2022-08-05T14:06:25.766Z,3.42
2022-08-05T14:08:46.193Z,3.35
2022-08-05T14:11:20.269Z,3.60
2022-08-05T14:13:49.590Z,3.67
2022-08-05T14:16:23.860Z,3.65
2022-08-05T14:18:52.220Z,3.53
2022-08-05T14:22:07.010Z,3.22
2022-08-05T14:24:12.421Z,3.40
2022-08-05T14:27:02.054Z,3.70
2022-08-05T14:29:31.412Z,3.92
2022-08-05T14:32:12.221Z,3.10
2022-08-05T14:34:43.226Z,3.80
2022-08-05T14:37:13.277Z,3.85
2022-08-05T14:39:49.288Z,4.07
2022-08-05T14:42:21.023Z,3.63
2022-08-05T14:44:49.791Z,3.40
2022-08-05T14:47:23.965Z,3.42
2022-08-05T14:50:17.434Z,3.50
2022-08-05T14:52:58.433Z,3.72
2022-08-05T14:55:39.900Z,3.33
2022-08-05T14:58:12.440Z,3.33
2022-08-05T15:00:59.497Z,4.00
2022-08-05T15:03:33.325Z,3.90
2022-08-05T15:06:13.004Z,3.72
2022-08-05T15:09:01.309Z,4.50
2022-08-05T15:11:53.135Z,4.22
2022-08-05T15:14:35.794Z,3.85
2022-08-05T15:17:44.873Z,3.70
2022-08-05T15:19:58.871Z,3.65
2022-08-05T15:22:28.464Z,3.88
2022-08-05T15:24:59.392Z,3.20
2022-08-05T15:27:32.149Z,3.75
2022-08-05T15:30:05.599Z,3.50
2022-08-05T15:32:34.768Z,3.80
2022-08-05T15:35:10.826Z,3.95
2022-08-05T15:38:32.951Z,3.30
2022-08-05T15:40:58.874Z,3.38
2022-08-05T15:43:27.111Z,3.17
2022-08-05T15:46:02.461Z,3.22
2022-08-05T15:48:32.374Z,3.40
2022-08-05T15:51:05.909Z,3.15
2022-08-05T15:53:38.453Z,3.60
2022-08-05T15:56:18.411Z,3.47
2022-08-05T15:58:48.925Z,2.97
2022-08-05T16:01:20.006Z,3.70
2022-08-05T16:03:50.434Z,3.83
2022-08-05T16:06:22.766Z,3.42
2022-08-05T16:08:55.374Z,3.05
2022-08-05T16:11:40.128Z,3.50
2022-08-05T16:14:17.170Z,4.13
2022-08-05T16:16:47.476Z,3.20
2022-08-05T16:19:25.606Z,3.90
2022-08-05T16:22:05.349Z,3.40
2022-08-05T16:24:41.532Z,3.13
2022-08-05T16:27:19.527Z,3.30
2022-08-05T16:30:23.297Z,3.40
2022-08-05T16:32:55.921Z,3.10
2022-08-05T16:35:27.957Z,3.65
2022-08-05T16:38:15.777Z,3.78
2022-08-05T16:40:51.814Z,3.67
2022-08-05T16:43:24.450Z,3.50
2022-08-05T16:46:05.057Z,3.30
2022-08-05T16:48:39.083Z,3.30
2022-08-05T16:51:09.120Z,4.65
2022-08-05T16:54:05.897Z,3.43
2022-08-05T16:56:29.529Z,4.30
2022-08-05T16:58:58.872Z,3.85
2022-08-05T17:01:31.788Z,3.83
2022-08-05T17:04:19.014Z,3.63
2022-08-05T17:06:53.028Z,3.55
2022-08-05T17:09:21.510Z,3.92
2022-08-05T17:11:55.973Z,3.58
2022-08-05T17:14:36.732Z,3.35
2022-08-05T17:17:09.328Z,4.13
2022-08-05T17:19:46.285Z,3.80
2022-08-05T17:22:24.832Z,3.60
2022-08-05T17:24:57.852Z,3.65
2022-08-05T17:27:33.618Z,4.00
2022-08-05T17:30:04.119Z,4.38
2022-08-05T17:32:35.262Z,3.70
2022-08-05T17:35:04.163Z,3.83
2022-08-05T17:37:41.532Z,3.58
2022-08-05T17:40:16.032Z,4.50
2022-08-05T17:42:50.987Z,4.53
2022-08-05T17:45:22.125Z,4.30
2022-08-05T17:47:55.801Z,4.35
2022-08-05T17:50:28.459Z,4.30
2022-08-05T17:53:00.544Z,4.05
2022-08-05T17:55:37.686Z,3.45
2022-08-05T17:58:09.616Z,2.97
2022-08-05T18:00:44.636Z,4.70
2022-08-05T18:06:11.947Z,4.45
2022-08-05T18:08:46.103Z,3.97
2022-08-05T18:11:23.934Z,3.90
2022-08-05T18:14:03.184Z,3.58
2022-08-05T18:16:32.850Z,3.42
2022-08-05T18:19:02.654Z,3.65
2022-08-05T18:22:07.229Z,3.60
2022-08-05T18:24:19.179Z,3.28
2022-08-05T18:26:49.442Z,3.33
2022-08-05T18:29:17.725Z,3.50
2022-08-05T18:32:06.620Z,3.65
2022-08-05T18:34:43.011Z,3.67
2022-08-05T18:37:12.711Z,3.50
2022-08-05T18:40:31.228Z,4.00
2022-08-05T18:42:48.340Z,4.10
2022-08-05T18:45:16.735Z,4.10
2022-08-05T18:47:48.969Z,3.63
2022-08-05T18:50:44.838Z,3.38
2022-08-05T18:53:22.941Z,5.60
2022-08-05T18:55:53.382Z,3.97
2022-08-05T18:58:28.546Z,4.03
2022-08-05T19:00:57.549Z,3.67
2022-08-05T19:03:53.469Z,3.63
2022-08-05T19:06:22.175Z,3.92
2022-08-05T19:09:03.423Z,4.10
2022-08-05T19:11:37.058Z,3.60
2022-08-05T19:14:52.440Z,3.92
2022-08-05T19:17:11.888Z,3.58
2022-08-05T19:19:46.508Z,3.60
2022-08-05T19:22:17.703Z,3.53
2022-08-05T19:24:56.127Z,3.90
2022-08-05T19:27:30.266Z,4.60
2022-08-05T19:29:59.481Z,4.38
2022-08-05T19:32:28.330Z,4.15
2022-08-05T19:34:57.897Z,3.70
2022-08-05T19:37:35.065Z,3.92
2022-08-05T19:40:18.638Z,4.05
2022-08-05T19:43:04.953Z,6.07
2022-08-05T19:45:36.855Z,4.50
2022-08-05T19:48:06.680Z,4.07
2022-08-05T19:50:37.044Z,3.92
2022-08-05T19:53:09.590Z,4.00
2022-08-05T19:56:15.202Z,3.05
2022-08-05T19:58:30.088Z,3.63
2022-08-05T20:00:58.976Z,4.00
2022-08-05T20:03:36.319Z,4.20
2022-08-05T20:06:15.598Z,3.80
2022-08-05T20:08:52.833Z,4.43
2022-08-05T20:11:23.069Z,4.18
2022-08-05T20:13:59.148Z,4.03
2022-08-05T20:16:42.007Z,4.00
2022-08-05T20:19:12.067Z,4.10
2022-08-05T20:21:43.466Z,4.57
2022-08-05T20:24:14.858Z,4.68
2022-08-05T20:26:44.418Z,4.50
2022-08-05T20:29:26.893Z,4.70
2022-08-05T20:31:58.336Z,4.72
2022-08-05T20:34:28.165Z,5.00
2022-08-05T20:36:56.410Z,4.70
2022-08-05T20:39:26.065Z,4.40
2022-08-05T20:42:05.293Z,4.45
2022-08-05T20:44:37.721Z,5.10
2022-08-05T20:47:07.794Z,4.20
2022-08-05T20:49:39.564Z,4.20
2022-08-05T20:52:10.673Z,5.35
2022-08-05T20:54:43.092Z,4.60
2022-08-05T20:57:43.256Z,4.72
2022-08-05T21:00:40.042Z,4.82
2022-08-05T21:03:06.157Z,4.93
2022-08-05T21:05:48.293Z,5.10
2022-08-05T21:08:26.623Z,4.43
2022-08-05T21:11:10.035Z,4.78
2022-08-05T21:13:48.318Z,4.82
2022-08-05T21:16:29.497Z,4.63
2022-08-05T21:18:59.829Z,4.95
2022-08-05T21:21:43.933Z,4.82
2022-08-05T21:24:15.216Z,4.50
2022-08-05T21:26:50.558Z,4.53
2022-08-05T21:29:26.483Z,5.03
2022-08-05T21:31:59.767Z,4.78
2022-08-05T21:34:28.928Z,4.85
2022-08-05T21:37:00.074Z,4.95
2022-08-05T21:39:28.405Z,5.15
2022-08-05T21:42:01.491Z,5.50
2022-08-05T21:44:30.994Z,5.22
2022-08-05T21:47:00.066Z,4.90
2022-08-05T21:49:48.050Z,5.53
2022-08-05T21:52:26.910Z,5.40
2022-08-05T21:54:56.569Z,5.15
2022-08-05T21:57:33.724Z,5.13
2022-08-05T22:00:05.313Z,5.95
2022-08-05T22:02:35.808Z,5.03
2022-08-05T22:05:05.386Z,5.15
2022-08-05T22:07:40.410Z,4.38
2022-08-05T22:10:26.643Z,4.95
2022-08-05T22:12:58.707Z,5.65
2022-08-05T22:16:00.780Z,5.15
2022-08-05T22:18:16.412Z,4.85
2022-08-05T22:20:48.114Z,5.60
2022-08-05T22:24:01.693Z,5.18
2022-08-05T22:26:40.527Z,5.18
2022-08-05T22:29:10.294Z,5.00
2022-08-05T22:31:44.545Z,5.45
2022-08-05T22:34:25.425Z,5.85
2022-08-05T22:36:56.786Z,5.38
2022-08-05T22:39:31.137Z,5.40
2022-08-05T22:42:10.198Z,5.60
2022-08-05T22:44:48.302Z,5.15
2022-08-05T22:47:28.972Z,5.63
2022-08-05T22:50:19.259Z,5.28
2022-08-05T22:52:49.463Z,5.22
2022-08-05T22:55:21.100Z,6.18
2022-08-05T22:57:51.054Z,5.97
2022-08-05T23:00:22.215Z,5.85
2022-08-05T23:02:52.310Z,5.60
2022-08-05T23:05:22.010Z,5.57
2022-08-05T23:07:51.187Z,6.30
2022-08-05T23:10:20.927Z,5.30
2022-08-05T23:12:54.917Z,4.95
2022-08-05T23:15:29.543Z,5.00
2022-08-05T23:18:03.577Z,5.10
2022-08-05T23:20:37.275Z,4.50
2022-08-05T23:23:08.380Z,4.75
2022-08-05T23:25:52.053Z,4.25
2022-08-05T23:28:24.113Z,4.65
2022-08-05T23:31:15.638Z,5.38
2022-08-05T23:34:04.445Z,5.40
2022-08-05T23:36:39.857Z,5.13
2022-08-05T23:39:17.233Z,5.38
2022-08-05T23:42:01.902Z,5.38
2022-08-05T23:44:32.254Z,5.22
2022-08-05T23:47:14.545Z,4.97
2022-08-05T23:49:45.821Z,4.88
2022-08-05T23:52:30.729Z,5.40
2022-08-05T23:55:02.212Z,4.95
2022-08-05T23:57:33.758Z,4.90
